Date,TemperatureHighF,TemperatureAvgF,TemperatureLowF,DewpointHighF,DewpointAvgF,DewpointLowF,HumidityHigh,HumidityAvg,HumidityLow,PressureMaxIn,PressureMinIn,WindSpeedMaxMPH,WindSpeedAvgMPH,GustSpeedMaxMPH,PrecipitationSumIn
2013-1-1,31.1,20.6,7.8,30.0,19.1,6.0,97,94,90,30.06,29.86,9,1,0,0.00
2013-1-2,24.7,19.2,9.0,23.0,17.5,7.0,94,93,90,30.23,30.02,15,2,0,0.00
2013-1-3,27.0,21.1,12.8,26.0,19.4,11.0,95,93,91,30.23,30.00,9,2,0,0.01
2013-1-4,30.8,28.7,25.4,28.0,26.6,24.0,94,91,87,30.03,29.90,16,7,0,0.00
2013-1-5,34.4,30.5,28.5,30.0,27.2,24.0,92,87,81,30.31,30.05,15,2,0,0.00
2013-1-6,36.3,33.6,30.2,32.0,30.7,26.0,95,89,82,30.09,29.90,11,3,0,0.01
2013-1-7,33.5,27.9,24.4,32.0,23.8,21.0,94,85,73,30.41,30.10,11,2,0,0.00
2013-1-8,39.9,32.2,28.3,29.0,23.6,19.0,81,71,63,30.33,30.18,9,2,0,0.00
2013-1-9,48.1,37.2,28.3,38.0,29.9,21.0,84,75,66,30.33,29.97,19,4,0,0.00
2013-1-10,41.9,36.1,31.0,30.0,28.4,27.0,85,74,60,30.60,30.34,4,1,0,0.00
2013-1-11,43.7,40.0,31.5,41.0,34.4,27.0,92,81,64,30.42,29.90,13,3,0,0.02
2013-1-12,57.1,48.6,42.0,51.0,45.5,41.0,96,89,78,30.00,29.95,7,2,0,0.00
2013-1-13,67.7,55.7,47.7,58.0,52.0,46.0,96,87,71,29.97,29.74,13,3,0,0.00
2013-1-14,52.8,34.6,26.9,51.0,29.1,21.0,94,80,68,30.38,29.72,14,3,0,0.00
2013-1-15,33.3,28.6,26.4,22.0,20.9,20.0,79,73,60,30.41,30.19,4,1,0,0.00
2013-1-16,38.3,31.5,27.6,31.0,25.6,21.0,86,79,63,30.17,29.79,11,2,0,0.00
2013-1-17,33.7,24.0,15.4,30.0,19.5,13.0,90,83,76,30.20,29.86,11,3,0,0.00
2013-1-18,33.4,20.0,12.8,19.0,12.8,10.0,90,75,57,30.46,30.05,12,2,0,0.01
2013-1-19,47.4,41.5,33.4,32.0,26.5,20.0,65,56,46,30.04,29.59,16,4,0,0.00
2013-1-20,47.2,30.2,17.4,35.0,18.8,7.0,75,63,49,30.07,29.46,26,7,0,0.01
2013-1-21,20.2,17.1,11.3,15.0,9.8,1.0,86,73,64,30.07,29.89,11,2,0,0.00
2013-1-22,12.8,7.3,5.0,2.0,-14.9,-99.9,68,54,51,30.21,29.92,14,-123,0,0.00
2013-1-23,13.7,8.7,3.9,7.0,2.3,-4.0,85,75,57,30.27,30.13,7,2,0,0.00
2013-1-24,14.3,8.8,4.5,9.0,-3.0,-99.9,91,75,69,30.55,30.11,7,-71,0,0.00
2013-1-25,14.4,10.0,4.9,10.0,-2.8,-99.9,88,74,69,30.54,30.11,5,-83,0,0.01
2013-1-26,24.3,14.2,3.5,16.0,-0.1,-99.9,89,70,59,30.43,30.12,4,-83,0,0.00
2013-1-27,28.5,20.7,17.6,18.0,6.5,-99.9,90,71,61,30.58,30.38,4,-84,0,0.00
2013-1-28,43.9,32.2,23.6,43.0,20.1,-99.9,97,80,68,30.36,29.87,7,-92,0,0.08
2013-1-29,54.4,42.7,33.7,54.0,41.9,33.0,98,97,96,30.04,29.74,5,1,0,0.42
2013-1-30,62.7,56.8,50.6,56.0,52.0,49.0,95,84,75,29.74,29.03,14,4,0,0.06
2013-1-31,53.1,29.0,21.1,51.0,21.9,12.0,94,75,59,29.71,29.00,28,9,0,0.11
2013-2-1,22.4,18.8,16.1,15.0,12.6,9.0,86,77,65,30.21,29.71,10,3,0,0.00
2013-2-2,20.0,16.6,13.4,15.0,11.2,7.0,87,79,70,30.21,29.99,9,2,0,0.00
2013-2-3,25.7,18.3,11.5,16.0,13.1,9.0,90,81,58,29.99,29.80,6,1,0,0.00
2013-2-4,21.7,17.6,14.6,14.0,11.4,9.0,84,77,62,29.98,29.88,11,3,0,0.00
2013-2-5,26.4,21.3,15.3,20.0,15.8,12.0,89,80,71,29.98,29.86,5,1,0,0.00
2013-2-6,27.4,23.6,15.5,23.0,16.4,10.0,90,75,55,30.39,29.89,6,2,0,0.00
2013-2-7,30.9,23.0,15.2,23.0,16.4,11.0,92,76,66,30.43,30.09,8,2,0,0.00
2013-2-8,33.8,28.6,17.5,32.0,25.2,16.0,95,87,70,30.10,29.76,6,1,0,0.43
2013-2-9,21.9,17.1,9.4,19.0,14.7,7.0,93,90,87,30.44,30.11,0,0,0,0.00
2013-2-10,37.2,21.5,5.3,27.0,16.3,2.0,89,81,62,30.43,30.00,3,0,0,0.00
2013-2-11,50.5,38.2,31.4,42.0,31.4,25.0,91,77,61,29.98,29.56,32,7,0,0.04
2013-2-12,33.7,31.1,29.6,29.0,27.0,24.0,93,84,73,29.97,29.71,18,6,0,0.00
2013-2-13,40.4,30.9,23.8,27.0,24.3,21.0,89,77,57,29.92,29.73,5,1,0,0.00
2013-2-14,40.8,32.2,24.1,35.0,28.1,21.0,94,85,65,29.92,29.78,6,1,0,0.03
2013-2-15,36.9,32.2,22.2,35.0,24.3,16.0,94,73,58,30.06,29.78,22,5,0,0.00
2013-2-16,31.7,24.0,18.9,20.0,16.2,11.0,90,73,44,30.07,29.93,3,1,0,0.03
2013-2-17,18.4,14.2,9.6,16.0,10.3,5.0,90,84,71,30.22,29.91,10,2,0,0.03
2013-2-18,34.6,20.6,9.2,22.0,13.0,6.0,88,73,60,30.32,29.93,4,1,0,0.00
2013-2-19,40.5,33.0,23.4,36.0,26.4,19.0,92,78,58,29.93,29.57,18,5,0,0.13
2013-2-20,23.1,20.1,17.7,19.0,14.3,12.0,88,78,65,30.09,29.75,17,5,0,0.00
2013-2-21,21.3,18.0,13.1,16.0,13.4,10.0,88,82,76,30.44,30.06,15,2,0,0.00
2013-2-22,33.6,26.9,19.9,28.0,22.4,16.0,89,83,69,30.41,30.02,10,3,0,0.01
2013-2-23,37.4,32.4,29.7,32.0,28.3,24.0,92,84,79,30.02,29.88,12,2,0,0.00
2013-2-24,31.0,29.3,28.1,26.0,24.6,23.0,90,83,77,30.08,29.86,9,3,0,0.01
2013-2-25,36.0,31.2,27.5,30.0,26.4,24.0,89,82,72,30.24,30.08,6,1,0,0.00
2013-2-26,42.5,32.8,24.1,32.0,27.1,22.0,96,81,59,30.24,29.78,11,2,0,0.82
2013-2-27,34.8,33.0,32.2,34.0,32.0,31.0,97,96,95,29.77,29.57,7,1,0,0.34
2013-2-28,35.5,33.2,31.8,33.0,31.6,31.0,96,94,88,29.73,29.54,9,2,0,0.02
2013-3-1,32.3,28.3,24.7,31.0,26.0,21.0,96,91,85,29.94,29.73,5,1,0,0.05
2013-3-2,25.5,23.3,20.2,22.0,19.8,17.0,90,86,78,29.96,29.89,6,1,0,0.01
2013-3-3,23.9,22.4,20.8,21.0,19.0,17.0,92,87,77,29.92,29.87,5,1,0,0.05
2013-3-4,29.2,24.5,19.7,23.0,19.9,17.0,89,83,71,30.07,29.92,10,2,0,0.00
2013-3-5,31.5,26.1,21.5,23.0,21.1,19.0,91,82,71,30.11,29.98,6,2,0,0.00
2013-3-6,38.9,30.3,20.7,32.0,26.6,19.0,93,86,69,30.16,29.97,7,2,0,0.00
2013-3-7,37.1,33.2,29.7,33.0,30.1,27.0,95,88,79,30.28,30.14,6,1,0,0.00
2013-3-8,40.8,33.5,28.6,29.0,26.1,23.0,94,76,55,30.41,30.27,13,2,0,0.02
2013-3-9,45.2,35.2,27.1,33.0,28.4,25.0,94,78,53,30.43,30.23,5,1,0,0.00
2013-3-10,60.3,49.9,35.7,36.0,30.3,26.0,74,48,37,30.23,29.97,12,2,0,0.00
2013-3-11,57.2,51.7,48.4,46.0,34.1,30.0,78,52,45,29.97,29.65,10,4,0,0.00
2013-3-12,52.2,37.9,32.9,48.0,33.7,27.0,93,85,78,29.91,29.65,14,4,0,0.19
2013-3-13,36.2,30.9,21.2,29.0,24.4,18.0,89,77,63,29.95,29.83,16,4,0,0.02
2013-3-14,32.5,24.5,17.4,18.0,13.9,11.0,88,66,42,30.08,29.95,15,4,0,0.00
2013-3-15,35.0,29.5,23.4,31.0,24.6,15.0,93,82,66,30.06,29.74,11,3,0,0.05
2013-3-16,28.4,24.7,18.0,22.0,18.3,15.0,87,77,69,29.99,29.85,7,2,0,0.00
2013-3-17,31.3,23.5,17.2,25.0,17.2,10.0,91,78,55,30.36,29.99,11,1,0,0.01
2013-3-18,33.1,24.1,15.7,31.0,18.3,10.0,94,79,51,30.36,29.73,10,3,0,0.24
2013-3-19,35.3,30.3,23.0,32.0,26.8,20.0,93,87,75,29.84,29.67,11,3,0,0.03
2013-3-20,33.9,26.9,21.7,24.0,20.2,17.0,90,77,53,29.85,29.80,13,4,0,0.00
2013-3-21,29.0,23.7,15.3,24.0,17.9,12.0,92,79,55,29.84,29.73,11,3,0,0.06
2013-3-22,29.3,26.5,23.3,26.0,23.8,21.0,92,89,87,29.95,29.75,14,4,0,0.03
2013-3-23,37.1,31.1,27.6,27.0,25.1,24.0,87,79,62,30.02,29.92,10,3,0,0.00
2013-3-24,37.5,32.2,23.3,29.0,23.3,21.0,92,70,58,30.02,29.75,7,2,0,0.00
2013-3-25,38.7,33.1,29.2,30.0,26.1,24.0,84,76,64,29.74,29.61,10,2,0,0.00
2013-3-26,49.2,37.5,29.0,33.0,29.3,26.0,89,74,51,29.95,29.74,7,2,0,0.00
2013-3-27,44.3,34.8,30.7,35.0,30.6,26.0,94,85,65,30.07,29.92,14,4,0,0.05
2013-3-28,43.4,35.7,31.7,37.0,32.6,31.0,95,88,68,30.21,30.05,7,2,0,0.00
2013-3-29,52.0,40.5,34.4,36.0,32.4,29.0,89,74,49,30.21,30.13,6,2,0,0.00
2013-3-30,47.9,35.6,30.6,31.0,28.0,26.0,84,75,46,30.21,30.17,6,2,0,0.00
2013-4-2,30.7,27.9,26.4,26.0,23.3,19.0,91,83,72,30.13,30.03,11,5,0,0.02
2013-4-3,36.2,29.1,24.9,21.0,18.5,16.0,82,66,46,30.39,30.12,17,3,0,0.00
2013-4-4,55.0,37.5,23.2,25.0,20.2,18.0,82,54,26,30.36,29.93,8,2,0,0.00
2013-4-5,44.7,37.7,27.8,30.0,23.5,18.0,72,57,47,30.15,29.88,10,2,0,0.00
2013-4-6,47.7,35.1,22.3,26.0,21.0,17.0,83,59,33,30.33,30.04,5,1,0,0.00
2013-4-7,68.9,54.3,42.4,48.0,36.4,23.0,75,52,40,30.04,29.69,21,6,0,0.00
2013-4-8,59.0,46.4,38.9,49.0,37.8,33.0,93,73,51,30.10,29.76,7,1,0,0.02
2013-4-9,65.1,51.9,43.6,53.0,45.1,42.0,96,79,54,30.10,29.74,13,3,0,0.82
2013-4-10,46.4,43.5,39.4,46.0,42.8,39.0,98,97,96,30.02,29.86,8,2,0,0.51
2013-4-11,34.4,31.8,31.1,31.0,30.7,30.0,97,95,86,30.14,29.96,6,0,0,0.37
2013-4-12,52.9,39.3,32.2,50.0,37.6,32.0,99,93,83,29.95,29.53,19,4,0,0.62
2013-4-13,43.3,40.1,37.2,37.0,34.3,32.0,89,80,66,29.93,29.77,13,5,0,0.00
2013-4-14,49.8,39.7,33.5,33.0,30.6,28.0,89,71,52,30.19,29.94,9,2,0,0.01
2013-4-15,72.1,54.5,35.2,50.0,41.2,28.0,80,63,44,30.16,29.98,10,3,0,0.00
2013-4-16,63.6,56.4,45.0,58.0,50.6,38.0,94,81,71,30.21,29.94,12,4,0,0.11
2013-4-17,55.5,45.7,34.8,39.0,33.9,31.0,88,65,46,30.34,30.21,7,2,0,0.00
2013-4-18,75.2,60.4,42.5,60.0,50.3,33.0,80,70,60,30.21,29.68,17,5,0,0.00
2013-4-19,71.7,56.9,40.4,60.0,48.9,31.0,88,75,62,29.73,29.35,20,6,0,0.07
2013-4-20,40.4,36.4,30.9,32.0,27.4,22.0,89,70,56,30.41,29.72,23,6,0,0.00
2013-4-21,44.0,34.6,25.3,28.0,23.4,18.0,84,65,50,30.69,30.42,7,1,0,0.00
2013-4-22,58.7,45.0,30.1,32.0,27.1,19.0,76,52,34,30.61,30.33,10,2,0,0.00
2013-4-23,65.8,51.6,37.8,41.0,35.1,29.0,74,55,35,30.33,29.94,6,2,0,0.00
2013-4-24,67.8,52.5,36.9,56.0,43.9,34.0,92,74,60,29.98,29.56,12,4,0,0.06
2013-4-25,56.5,44.3,33.6,38.0,33.6,28.0,92,70,36,30.30,29.99,13,3,0,0.00
2013-4-26,58.6,46.6,34.9,38.0,32.6,28.0,93,63,33,30.46,30.30,5,1,0,0.00
2013-4-27,74.6,55.2,38.2,42.0,36.3,30.0,76,52,29,30.43,30.21,4,1,0,0.00
2013-4-28,71.8,58.5,48.9,49.0,42.6,36.0,89,58,32,30.21,29.99,9,2,0,0.06
2013-4-29,64.7,56.6,48.7,55.0,49.4,45.0,90,77,67,30.03,29.94,7,2,0,0.06
2013-4-30,73.1,62.8,55.1,56.0,53.3,51.0,88,72,54,30.18,30.02,6,2,0,0.00
2013-5-1,78.2,66.0,55.3,53.0,48.2,36.0,83,56,30,30.31,30.19,7,1,0,0.00
2013-5-2,78.4,65.9,54.3,47.0,40.9,35.0,55,41,25,30.38,30.23,5,1,0,0.00
2013-5-3,77.5,66.1,51.9,51.0,45.7,41.0,68,49,36,30.27,30.17,3,1,0,0.00
2013-5-4,75.6,63.9,52.0,46.0,43.0,37.0,64,48,33,30.24,30.10,5,1,0,0.00
2013-5-5,77.5,64.1,48.3,49.0,44.4,41.0,79,52,30,30.18,30.05,6,1,0,0.00
2013-5-6,78.8,63.7,51.0,46.0,39.9,34.0,65,44,22,30.12,29.98,5,0,0,0.00
2013-5-7,79.7,66.0,52.1,56.0,52.0,45.0,89,63,41,30.09,29.97,3,0,0,0.00
2013-5-8,69.2,60.9,54.9,62.0,55.7,50.0,96,84,69,30.02,29.90,3,0,0,0.80
2013-5-9,73.3,62.2,57.0,63.0,58.5,53.0,99,88,65,29.94,29.85,3,0,0,0.46
2013-5-10,75.4,60.2,52.0,64.0,56.5,49.0,96,87,63,29.93,29.70,6,0,0,0.49
2013-5-11,58.5,52.4,45.7,58.0,49.4,44.0,97,90,74,29.76,29.64,11,2,0,0.05
2013-5-12,50.0,43.8,37.4,47.0,36.2,30.0,93,76,56,29.92,29.67,12,3,0,0.03
2013-5-13,50.6,40.8,32.9,35.0,32.2,29.0,87,73,54,30.13,29.92,10,2,0,0.00
2013-5-14,60.5,47.5,32.3,41.0,34.3,31.0,95,64,36,30.16,29.94,2,0,0,0.00
2013-5-15,81.3,61.7,48.2,63.0,49.1,40.0,86,65,46,29.94,29.52,9,1,0,0.02
2013-5-16,79.4,64.0,50.3,51.0,46.3,39.0,82,56,33,29.99,29.71,7,1,0,0.00
2013-5-17,68.8,54.8,40.5,46.0,41.2,37.0,94,63,37,30.21,29.99,5,0,0,0.00
2013-5-18,73.3,58.4,45.4,51.0,45.7,39.0,85,65,44,30.24,30.12,3,0,0,0.00
2013-5-19,83.1,67.8,56.6,65.0,59.0,52.0,90,74,54,30.11,29.96,4,0,0,0.00
2013-5-20,88.2,73.8,61.7,70.0,64.3,59.0,91,74,49,30.01,29.82,2,0,0,0.00
2013-5-21,92.1,75.7,62.3,73.0,66.4,60.0,95,75,46,29.90,29.71,4,0,0,0.14
2013-5-22,91.5,74.5,62.8,71.0,65.8,62.0,98,77,45,29.76,29.61,4,0,0,0.31
2013-5-23,75.2,65.5,44.7,65.0,59.6,43.0,94,82,62,29.85,29.66,7,1,0,0.15
2013-5-24,49.4,42.2,37.9,43.0,38.6,37.0,96,87,66,30.21,29.86,9,2,0,0.24
2013-5-25,60.2,48.5,38.0,40.0,37.3,35.0,91,67,45,30.23,30.15,10,2,0,0.00
2013-5-26,65.4,52.5,40.4,41.0,37.5,34.0,87,60,35,30.20,30.13,10,1,0,0.00
2013-5-27,75.9,59.2,44.0,45.0,40.6,37.0,81,54,28,30.26,30.12,6,0,0,0.00
2013-5-28,62.1,56.3,50.7,61.0,51.6,39.0,98,85,59,30.14,29.92,3,0,0,1.07
2013-5-29,82.0,71.0,61.9,69.0,64.5,61.0,99,82,59,29.99,29.88,15,2,0,0.51
2013-5-30,93.2,77.5,65.4,69.0,65.7,62.0,90,69,44,30.08,29.99,3,0,0,0.00
2013-5-31,94.6,79.9,66.1,71.0,66.5,61.0,84,66,42,30.03,29.88,4,0,0,0.00
2013-6-1,88.7,75.0,66.1,71.0,66.9,63.0,97,78,54,29.92,29.72,5,1,0,0.48
2013-6-2,76.2,68.0,57.1,67.0,63.1,52.0,98,85,59,29.85,29.65,15,1,0,0.57
2013-6-3,68.0,56.8,49.1,52.0,47.5,44.0,87,73,50,30.00,29.85,5,0,0,0.00
2013-6-4,72.6,57.9,46.0,47.0,43.3,39.0,87,62,36,30.15,30.01,6,1,0,0.00
2013-6-5,71.1,57.0,46.5,53.0,46.6,41.0,91,70,49,30.20,30.08,6,0,0,0.00
2013-6-6,57.2,54.4,51.7,57.0,52.2,43.0,98,93,68,30.07,29.82,4,0,0,1.72
2013-6-7,59.9,57.3,54.9,59.0,56.7,54.0,99,98,94,29.84,29.78,5,0,0,0.06
2013-6-8,63.9,58.4,55.1,61.0,56.5,53.0,99,93,86,30.07,29.80,5,0,0,0.04
2013-6-9,77.0,65.5,53.5,60.0,55.7,51.0,93,72,52,30.18,30.06,2,0,0,0.00
2013-6-10,67.5,64.1,60.7,65.0,61.3,56.0,98,91,81,30.09,29.68,2,0,0,0.15
2013-6-11,69.7,64.9,60.4,65.0,61.7,56.0,99,90,76,29.82,29.61,5,1,0,0.29
2013-6-12,79.5,66.6,53.1,60.0,56.6,52.0,97,73,46,29.92,29.76,2,0,0,0.00
2013-6-13,60.6,58.3,54.4,60.0,57.2,53.0,98,96,91,29.76,29.46,10,1,0,0.53
2013-6-14,76.4,63.1,54.0,62.0,57.6,53.0,98,84,59,29.96,29.76,4,0,0,0.00
2013-6-15,78.2,65.0,52.9,57.0,54.4,51.0,94,71,44,30.03,29.93,4,0,0,0.00
2013-6-16,76.5,65.9,61.3,68.0,60.6,53.0,96,83,73,29.93,29.68,5,1,0,0.14
2013-6-17,83.0,70.3,60.6,65.0,61.7,59.0,96,76,50,29.90,29.79,6,0,0,0.07
2013-6-18,71.3,61.7,53.3,59.0,53.5,49.0,96,77,47,30.00,29.86,7,1,0,0.00
2013-6-19,72.8,60.2,49.4,51.0,47.8,44.0,92,67,44,30.18,30.00,3,0,0,0.00
2013-6-20,84.1,63.0,45.6,55.0,49.0,43.0,93,64,36,30.23,30.17,4,0,0,0.00
2013-6-21,85.7,68.5,53.5,61.0,54.7,48.0,86,64,38,30.25,30.15,2,0,0,0.00
2013-6-22,88.3,76.0,61.7,71.0,65.1,57.0,88,70,54,30.15,29.97,6,1,0,0.00
2013-6-23,93.9,80.0,71.4,76.0,69.5,66.0,85,71,55,30.03,29.96,3,0,0,0.00
2013-6-24,89.1,79.0,71.8,73.0,67.7,64.0,81,69,54,30.00,29.90,6,1,0,0.00
2013-6-25,86.5,75.7,69.1,73.0,67.3,64.0,88,76,63,29.91,29.76,17,1,0,0.00
2013-6-26,87.1,75.1,67.0,73.0,67.7,63.0,95,79,58,29.80,29.75,6,1,0,0.13
2013-6-27,79.8,70.8,64.8,72.0,66.8,63.0,96,87,72,29.77,29.60,2,0,0,0.35
2013-6-28,67.7,64.3,60.5,67.0,63.7,60.0,98,97,96,29.60,29.46,3,0,0,1.33
2013-6-29,78.9,55.5,60.4,69.0,33.1,-99.9,99,70,66,29.67,29.47,6,0,0,0.47
2013-6-30,78.0,68.2,58.5,68.0,62.9,57.0,98,84,67,29.90,29.67,5,0,0,0.00
2013-7-1,67.0,63.2,59.0,63.0,61.5,58.0,98,94,85,30.04,29.90,9,1,0,0.25
2013-7-2,81.8,66.8,58.6,74.0,64.5,58.0,100,92,74,30.07,30.00,5,0,0,0.32
2013-7-3,85.9,66.5,64.6,76.0,55.3,-99.9,99,83,70,30.12,30.05,4,0,0,0.47
2013-7-4,90.2,74.6,68.0,74.0,68.7,-99.9,99,87,57,30.15,30.07,5,0,0,0.03
2013-7-5,85.9,75.5,68.5,77.0,70.5,67.0,97,85,65,30.11,30.02,5,0,0,0.05
2013-7-6,88.9,76.3,66.9,72.0,68.7,65.0,95,79,54,30.11,29.99,3,0,0,0.00
2013-7-7,83.5,75.7,70.1,72.0,70.1,65.0,98,83,67,30.02,29.90,6,1,0,0.03
2013-7-8,89.8,76.0,69.8,74.0,69.1,66.0,92,80,59,30.02,29.94,4,0,0,0.00
2013-7-9,80.3,74.2,68.6,74.0,70.4,67.0,97,88,72,30.01,29.87,2,0,0,0.13
2013-7-10,88.6,76.6,69.8,77.0,71.0,64.0,97,83,68,29.86,29.67,10,1,0,0.00
2013-7-11,81.5,70.1,59.8,67.0,61.0,57.0,90,74,52,29.99,29.79,6,1,0,0.00
2013-7-12,75.4,66.4,58.7,66.0,61.5,58.0,98,85,67,30.16,30.00,3,0,0,0.00
2013-7-13,81.9,70.8,58.1,71.0,65.6,57.0,98,84,66,30.22,30.14,4,0,0,0.00
2013-7-14,93.6,78.5,66.1,76.0,71.0,65.0,98,79,53,30.28,30.20,4,0,0,0.00
2013-7-15,91.8,79.1,71.3,76.0,71.7,66.0,94,79,57,30.26,30.19,5,0,0,0.00
2013-7-16,94.0,80.9,69.4,77.0,70.4,65.0,94,72,48,30.25,30.17,5,0,0,0.00
2013-7-17,96.9,83.5,73.0,81.0,74.7,69.0,93,76,48,30.19,30.04,6,1,0,0.00
2013-7-18,95.6,82.7,75.0,80.0,75.4,72.0,95,79,60,30.06,29.91,5,0,0,0.00
2013-7-19,92.6,82.1,67.2,77.0,72.4,66.0,96,74,52,29.91,29.67,11,2,0,0.81
2013-7-20,82.6,71.3,64.4,71.0,67.5,63.0,98,89,58,29.86,29.66,4,0,0,0.57
2013-7-21,79.0,69.6,62.1,66.0,62.6,60.0,95,79,60,29.98,29.86,3,0,0,0.00
2013-7-22,82.1,69.4,59.5,70.0,63.8,58.0,97,83,63,29.97,29.76,2,0,0,0.02
2013-7-23,87.1,73.0,63.2,71.0,67.3,61.0,98,84,52,29.76,29.59,4,0,0,0.10
2013-7-24,69.4,61.9,53.9,61.0,53.9,50.0,93,76,55,30.01,29.68,10,1,0,0.00
2013-7-25,75.1,61.4,48.1,58.0,52.3,47.0,99,74,49,30.12,30.03,4,0,0,0.00
2013-7-26,81.6,64.7,49.4,61.0,54.8,48.0,97,73,47,30.12,29.99,2,0,0,0.00
2013-7-27,79.9,67.7,57.6,67.0,62.0,56.0,95,83,62,29.99,29.80,3,0,0,0.01
2013-7-28,80.9,68.0,58.7,65.0,61.8,55.0,97,82,54,29.96,29.78,3,0,0,0.08
2013-7-29,71.8,62.9,55.3,61.0,56.1,53.0,92,79,61,30.11,29.95,7,1,0,0.00
2013-7-30,77.5,66.2,56.3,63.0,58.4,54.0,94,77,57,30.19,30.11,4,0,0,0.00
2013-7-31,83.5,68.4,55.4,65.0,60.0,54.0,96,77,46,30.14,29.92,4,0,0,0.00
2013-8-1,77.6,66.4,62.0,68.0,63.1,61.0,98,89,69,29.91,29.75,9,0,0,0.27
2013-8-2,78.6,67.2,58.9,67.0,60.8,57.0,97,81,52,29.87,29.81,3,0,0,0.25
2013-8-3,79.3,68.3,59.5,63.0,59.6,57.0,97,76,47,29.91,29.79,5,0,0,0.01
2013-8-4,73.8,63.8,56.2,60.0,55.0,50.0,93,75,55,30.05,29.91,7,1,0,0.00
2013-8-5,79.4,61.8,50.8,59.0,52.5,49.0,96,75,41,30.10,30.00,3,0,0,0.00
2013-8-6,79.4,66.2,53.0,61.0,56.7,51.0,96,74,50,30.03,29.96,2,0,0,0.00
2013-8-7,82.2,71.9,63.3,70.0,65.0,59.0,91,79,64,29.97,29.83,4,1,0,0.00
2013-8-8,86.7,72.8,65.6,75.0,68.8,64.0,98,88,65,29.93,29.87,6,0,0,0.70
2013-8-9,79.5,70.2,64.4,70.0,66.8,60.0,99,89,63,29.90,29.82,4,0,0,0.83
2013-8-10,77.5,67.2,58.1,63.0,57.7,53.0,94,74,50,30.07,29.91,6,1,0,0.00
2013-8-11,79.0,64.9,53.5,60.0,56.3,52.0,97,76,47,30.12,30.02,3,0,0,0.00
2013-8-12,78.7,68.2,60.2,66.0,60.9,56.0,90,78,58,30.03,29.83,3,0,0,0.04
2013-8-13,73.6,65.2,56.6,68.0,59.9,49.0,98,84,60,29.85,29.71,6,1,0,0.43
2013-8-14,70.9,59.3,51.9,56.0,51.3,48.0,95,77,52,30.07,29.83,10,1,0,0.01
2013-8-15,76.4,61.7,49.6,57.0,52.1,47.0,92,73,45,30.13,30.06,8,1,0,0.00
2013-8-16,82.5,65.4,52.3,60.0,55.9,50.0,94,74,46,30.19,30.10,3,0,0,0.00
2013-8-17,79.6,66.2,52.4,63.0,57.4,51.0,97,76,43,30.28,30.19,1,0,0,0.00
2013-8-18,82.1,68.2,57.1,64.0,59.4,54.0,92,75,49,30.23,30.09,1,0,0,0.00
2013-8-19,84.5,70.9,59.6,67.0,61.7,58.0,97,75,50,30.10,30.00,3,0,0,0.00
2013-8-20,86.6,71.7,59.3,66.0,61.9,57.0,93,74,46,30.11,30.04,5,0,0,0.00
2013-8-21,90.3,73.8,60.6,69.0,63.7,58.0,93,73,48,30.14,29.99,4,0,0,0.00
2013-8-22,83.9,73.4,65.0,72.0,67.0,59.0,91,81,66,30.00,29.87,6,1,0,0.00
2013-8-23,77.9,65.8,54.7,60.0,56.6,52.0,96,74,50,30.19,29.97,7,1,0,0.00
2013-8-24,77.2,62.8,49.7,61.0,53.3,48.0,98,74,47,30.34,30.19,2,0,0,0.00
2013-8-25,85.3,68.4,53.3,63.0,56.9,51.0,94,70,42,30.32,30.11,3,0,0,0.00
2013-8-26,79.2,70.1,64.4,71.0,65.7,61.0,95,86,71,30.14,29.89,7,1,0,0.40
2013-8-27,86.0,74.5,67.5,75.0,70.7,67.0,98,88,68,29.92,29.84,3,0,0,0.00
2013-8-28,82.3,73.6,67.2,74.0,70.4,66.0,99,90,74,29.93,29.82,4,0,0,0.05
2013-8-29,85.9,72.5,62.8,73.0,66.9,62.0,99,84,60,30.02,29.93,4,0,0,0.01
2013-8-30,85.8,73.2,62.7,72.0,67.2,62.0,98,83,61,29.98,29.73,5,0,0,0.00
2013-8-31,85.8,74.3,68.7,73.0,69.8,67.0,95,86,63,29.82,29.68,6,0,0,0.00
2013-9-1,80.5,71.7,66.3,72.0,68.7,65.0,98,90,73,29.81,29.72,10,0,0,0.94
2013-9-2,81.9,70.7,62.3,74.0,67.7,58.0,100,91,67,29.77,29.65,6,0,0,0.03
2013-9-3,67.3,62.6,59.0,60.0,57.6,55.0,91,84,75,29.93,29.75,6,1,0,0.00
2013-9-4,78.6,66.2,55.4,64.0,58.2,53.0,95,77,48,29.98,29.93,13,1,0,0.05
2013-9-5,67.2,57.4,45.5,61.0,50.1,42.0,96,78,49,30.21,29.96,6,0,0,0.01
2013-9-6,74.8,56.4,42.3,52.0,46.5,40.0,95,73,40,30.28,30.09,1,0,0,0.00
2013-9-7,65.3,59.6,51.8,62.0,54.7,49.0,94,84,68,30.09,29.86,7,0,0,0.06
2013-9-8,67.6,60.9,47.9,64.0,53.3,46.0,96,78,50,30.09,29.84,6,1,0,0.03
2013-9-9,77.5,60.4,44.4,64.0,53.6,43.0,95,80,58,30.14,29.95,6,0,0,0.00
2013-9-10,91.4,77.5,65.2,79.0,71.4,62.0,97,82,63,29.97,29.90,7,1,0,0.61
2013-9-11,93.3,81.5,73.2,77.0,73.1,67.0,88,77,56,29.99,29.85,7,1,0,0.00
2013-9-12,74.9,67.7,58.0,69.0,65.1,56.0,96,91,80,29.91,29.69,5,0,0,0.13
2013-9-13,58.5,53.2,48.3,57.0,51.6,47.0,97,94,86,30.01,29.74,7,1,0,0.20
2013-9-14,64.5,51.9,46.4,48.0,44.9,41.0,96,79,47,30.12,30.01,5,0,0,0.00
2013-9-15,67.5,56.0,45.5,55.0,48.9,41.0,93,78,62,30.16,30.05,3,0,0,0.08
2013-9-16,55.1,48.8,41.3,54.0,47.3,40.0,98,94,84,30.37,30.06,6,0,0,0.06
2013-9-17,63.7,49.0,36.3,48.0,42.0,35.0,100,79,51,30.49,30.30,2,0,0,0.00
2013-9-18,76.0,57.0,43.5,54.0,47.4,41.0,92,73,42,30.30,30.10,4,0,0,0.00
2013-9-19,79.1,62.8,51.5,62.0,54.7,47.0,94,76,54,30.11,29.99,2,0,0,0.00
2013-9-20,82.5,68.1,54.1,68.0,61.7,53.0,96,81,60,30.00,29.74,3,0,0,0.00
2013-9-21,69.7,62.2,52.0,63.0,59.6,51.0,97,91,77,29.74,29.59,5,0,0,0.94
2013-9-22,55.3,51.2,48.3,51.0,46.1,43.0,96,83,67,30.02,29.71,7,0,0,0.00
2013-9-23,61.2,50.4,42.2,46.0,42.9,40.0,91,77,55,30.15,30.02,6,0,0,0.00
2013-9-24,67.9,50.9,40.7,51.0,44.3,39.0,100,80,50,30.15,30.01,4,0,0,0.01
2013-9-25,72.1,53.5,40.1,55.0,46.5,39.0,97,80,50,30.02,29.95,4,0,0,0.00
2013-9-26,69.0,54.4,41.9,57.0,49.5,40.0,97,84,64,30.15,30.00,3,0,0,0.00
2013-9-27,69.1,54.9,44.0,58.0,50.7,43.0,98,86,64,30.26,30.15,2,0,0,0.00
2013-9-28,72.7,59.1,46.9,59.0,52.8,46.0,98,81,58,30.28,30.16,3,0,0,0.01
2013-9-29,75.0,60.4,47.1,58.0,52.7,45.0,95,77,53,30.16,29.98,4,0,0,0.00
2013-9-30,75.5,63.5,55.6,63.0,57.8,52.0,92,82,64,30.00,29.92,2,0,0,0.00
2013-10-1,77.4,64.2,55.6,62.0,58.4,54.0,97,83,53,30.00,29.90,8,0,0,0.00
2013-10-2,75.9,66.7,57.3,65.0,61.1,55.0,92,83,64,30.07,29.89,7,1,0,0.00
2013-10-3,71.7,59.7,46.0,56.0,50.5,45.0,96,74,48,30.12,30.01,2,0,0,0.01
2013-10-4,73.4,59.7,58.6,69.0,52.0,-99.9,98,89,84,30.05,29.97,3,-64,0,0.67
2013-10-5,61.6,59.0,57.8,61.0,58.3,56.0,99,97,94,30.08,30.02,1,0,0,0.23
2013-10-6,81.8,56.5,57.3,73.0,37.0,-99.9,100,74,70,30.01,29.70,2,0,0,0.55
2013-10-7,71.9,59.0,48.4,66.0,54.6,46.0,96,86,66,30.02,29.61,13,2,0,0.64
2013-10-8,64.6,52.1,44.6,51.0,45.9,43.0,97,81,52,30.34,30.03,4,0,0,0.00
2013-10-9,65.9,52.7,41.5,50.0,45.3,40.0,95,78,51,30.39,30.27,4,0,0,0.00
2013-10-10,67.0,52.9,43.6,47.0,43.2,39.0,90,71,41,30.27,30.15,3,0,0,0.00
2013-10-11,71.9,54.1,44.1,52.0,47.0,43.0,97,79,47,30.16,30.11,4,0,0,0.00
2013-10-12,74.3,57.8,43.5,52.0,45.7,42.0,96,68,39,30.19,30.12,3,0,0,0.00
2013-10-13,67.7,60.3,52.9,62.0,54.8,44.0,97,82,68,30.25,30.17,3,0,0,0.26
2013-10-14,65.0,55.9,46.6,59.0,52.5,44.0,98,89,67,30.32,30.24,2,0,0,0.08
2013-10-15,65.8,54.4,42.6,58.0,51.2,42.0,98,89,74,30.28,29.95,3,0,0,0.00
2013-10-16,65.1,60.6,56.0,59.0,55.3,52.0,93,83,74,29.94,29.74,5,1,0,0.18
2013-10-17,62.1,54.1,48.0,53.0,49.9,46.0,96,86,65,29.87,29.65,4,0,0,0.49
2013-10-18,58.2,51.1,47.4,50.0,45.5,42.0,97,82,61,29.90,29.71,7,1,0,0.30
2013-10-19,60.0,51.8,41.9,48.0,44.3,40.0,93,76,58,29.90,29.63,11,1,0,0.08
2013-10-20,50.9,45.1,40.0,44.0,41.4,38.0,94,87,75,29.99,29.75,9,1,0,0.01
2013-10-21,66.0,53.6,41.9,49.0,41.5,39.0,95,67,41,29.98,29.78,7,1,0,0.01
2013-10-22,50.9,44.3,37.6,48.0,37.4,31.0,95,77,60,29.85,29.72,14,2,0,0.14
2013-10-23,44.6,39.0,33.8,39.0,35.3,31.0,94,87,76,29.83,29.70,3,0,0,0.07
2013-10-24,48.3,38.6,32.3,36.0,32.8,30.0,94,81,54,30.02,29.80,10,2,0,0.01
2013-10-25,48.4,39.6,34.3,42.0,36.5,33.0,97,89,68,30.19,30.02,3,0,0,0.23
2013-10-26,44.8,41.0,37.3,36.0,32.9,29.0,92,74,57,30.14,29.79,12,2,0,0.06
2013-10-27,49.0,40.9,35.8,39.0,36.1,34.0,94,83,64,30.06,29.82,5,1,0,0.00
2013-10-28,48.3,40.7,28.8,40.0,32.2,24.0,87,73,46,30.39,30.04,5,1,0,0.00
2013-10-29,46.7,36.2,26.6,33.0,28.2,23.0,91,74,53,30.48,30.31,2,0,0,0.00
2013-10-30,57.9,45.1,36.2,43.0,38.3,33.0,94,78,55,30.31,30.10,2,0,0,0.01
2013-10-31,68.3,56.6,40.1,61.0,52.5,38.0,97,86,71,30.09,29.36,11,2,0,0.53
2013-11-1,61.9,55.3,46.3,59.0,49.7,43.0,95,82,65,29.66,29.18,18,4,0,0.38
2013-11-2,48.7,43.6,35.4,47.0,42.1,34.0,96,94,92,29.99,29.59,9,1,0,0.19
2013-11-3,37.3,32.0,25.1,34.0,25.8,22.0,95,78,61,30.54,30.00,8,1,0,0.00
2013-11-4,39.9,32.0,22.4,27.0,22.7,20.0,92,71,48,30.67,30.45,5,1,0,0.00
2013-11-5,55.2,45.2,35.7,38.0,30.5,20.0,66,57,51,30.48,30.32,11,1,0,0.00
2013-11-6,66.3,55.1,46.3,56.0,45.4,35.0,93,70,58,30.32,29.78,14,2,0,0.15
2013-11-7,56.4,42.7,36.2,55.0,38.0,31.0,95,83,72,29.98,29.76,6,2,0,0.15
2013-11-8,41.2,36.8,32.6,33.0,29.9,28.0,89,76,63,30.24,29.95,6,2,0,0.00
2013-11-9,49.4,41.4,34.4,43.0,32.8,29.0,86,72,53,30.23,29.79,6,2,0,0.01
2013-11-10,49.2,42.5,37.4,43.0,35.7,31.0,90,77,68,30.16,29.77,16,4,0,0.08
2013-11-11,44.1,36.1,27.8,36.0,31.3,26.0,95,84,63,30.16,29.92,13,2,0,0.37
2013-11-12,31.4,26.4,22.2,27.0,23.1,20.0,95,87,75,30.40,30.12,6,1,0,0.00
2013-11-13,36.4,28.7,19.2,28.0,22.6,17.0,92,78,58,30.44,30.10,11,3,0,0.00
2013-11-14,48.3,40.5,33.3,28.0,22.0,18.0,68,49,34,30.12,30.02,15,5,0,0.00
2013-11-15,53.3,46.4,40.6,29.0,25.2,21.0,52,44,35,30.11,30.04,11,2,0,0.00
2013-11-16,57.8,48.7,37.7,42.0,36.0,28.0,76,62,48,30.24,30.02,5,1,0,0.00
2013-11-17,60.2,55.3,48.6,55.0,50.5,42.0,91,83,76,30.02,29.36,14,4,0,0.15
2013-11-18,54.9,44.9,35.1,48.0,36.3,27.0,85,72,64,29.89,29.35,30,8,0,0.00
2013-11-19,37.0,32.8,24.9,29.0,25.2,21.0,86,74,61,30.46,29.89,9,2,0,0.00
2013-11-20,36.4,28.2,19.3,25.0,21.7,17.0,92,77,57,30.61,30.46,5,1,0,0.01
2013-11-21,42.7,37.5,31.3,36.0,27.1,18.0,91,67,54,30.46,30.27,10,3,0,0.01
2013-11-22,47.3,41.4,31.4,47.0,40.0,28.0,97,94,85,30.26,29.99,7,1,0,0.06
2013-11-23,34.4,26.3,15.8,28.0,21.8,11.0,92,83,64,30.19,30.01,18,3,0,0.03
2013-11-24,23.3,17.9,13.6,16.0,12.6,9.0,89,80,65,30.44,30.20,9,2,0,0.00
2013-11-25,34.0,26.5,15.6,23.0,14.9,11.0,88,64,43,30.42,30.13,9,2,0,0.00
2013-11-26,35.4,32.4,30.5,31.0,27.9,23.0,96,83,74,30.15,29.82,7,1,0,0.27
2013-11-27,32.3,28.9,21.4,31.0,27.1,18.0,96,93,86,29.91,29.65,10,1,0,0.13
2013-11-28,27.6,21.3,14.7,20.0,16.7,11.0,91,82,66,30.45,29.92,5,1,0,0.00
2013-11-29,28.0,20.8,10.8,21.0,16.0,7.0,92,82,65,30.76,30.45,4,0,0,0.01
2013-11-30,32.2,22.4,8.8,24.0,16.5,6.0,89,78,68,30.74,30.21,7,2,0,0.00
2013-12-1,39.9,34.3,30.1,33.0,29.1,25.0,92,82,69,30.21,29.97,5,1,0,0.00
2013-12-2,40.1,35.8,31.7,33.0,32.1,30.0,92,86,75,29.97,29.86,3,0,0,0.00
2013-12-3,39.5,32.1,26.7,31.0,28.1,25.0,94,85,68,30.02,29.91,4,0,0,0.00
2013-12-4,47.5,38.2,30.7,40.0,34.8,28.0,95,88,76,30.03,29.90,6,1,0,0.00
2013-12-5,59.5,49.0,39.9,54.0,44.4,36.0,89,84,71,29.99,29.74,15,3,0,0.00
2013-12-6,38.9,32.5,29.1,35.0,28.4,24.0,93,85,78,30.26,29.99,6,1,0,0.10
2013-12-7,29.6,26.1,21.0,25.0,18.8,13.0,86,74,58,30.58,30.25,7,2,0,0.00
2013-12-8,26.2,22.4,16.2,22.0,15.1,12.0,92,74,58,30.59,30.22,7,1,0,0.00
2013-12-9,38.8,32.8,25.8,35.0,28.7,21.0,91,85,73,30.20,29.87,15,4,0,0.00
2013-12-10,31.7,23.6,17.7,25.0,16.8,10.0,91,75,66,30.06,29.91,12,3,0,0.09
2013-12-11,24.2,19.4,11.2,20.0,13.6,6.0,90,78,65,30.30,30.06,12,3,0,0.04
2013-12-12,17.5,13.5,8.5,14.0,9.0,4.0,89,82,69,30.35,30.08,11,2,0,0.05
2013-12-13,24.9,17.9,11.7,20.0,13.8,8.0,90,84,76,30.41,30.05,12,2,0,0.02
2013-12-14,20.3,12.2,7.4,19.0,9.6,4.0,93,89,83,30.45,29.77,9,2,0,0.16
2013-12-15,22.9,21.0,16.2,22.0,19.4,14.0,94,93,88,29.87,29.63,7,2,0,0.23
2013-12-16,21.2,13.3,1.8,17.0,10.2,-1.0,90,87,83,30.20,29.88,14,2,0,0.00
2013-12-17,27.3,18.1,1.1,26.0,15.8,-2.0,93,90,87,30.18,29.94,7,1,0,0.02
2013-12-18,30.2,26.7,23.3,25.0,22.9,21.0,93,86,74,30.08,29.94,8,2,0,0.00
2013-12-19,41.4,34.8,24.8,33.0,27.9,18.0,90,76,66,30.05,29.90,11,2,0,0.00
2013-12-20,43.2,39.7,34.3,42.0,38.1,32.0,96,93,87,30.01,29.77,5,1,0,0.17
2013-12-21,52.4,41.9,30.6,51.0,41.1,30.0,98,97,94,29.88,29.72,11,2,0,0.60
2013-12-22,44.1,35.1,30.5,44.0,34.2,30.0,99,96,90,29.97,29.59,13,2,0,0.32
2013-12-23,39.3,33.9,23.3,36.0,29.9,19.0,93,85,72,30.26,29.95,10,3,0,0.00
2013-12-24,24.0,19.4,12.3,21.0,16.5,9.0,92,88,83,30.50,30.20,5,1,0,0.03
2013-12-25,24.2,13.4,2.6,16.0,8.7,0.0,89,81,69,30.55,30.25,4,1,0,0.00
2013-12-26,31.3,26.5,22.0,28.0,21.4,15.0,91,81,71,30.29,30.08,12,2,0,0.02
2013-12-27,35.3,27.7,20.0,29.0,23.8,14.0,89,85,76,30.30,30.10,7,2,0,0.00
2013-12-28,45.5,39.3,33.1,35.0,31.7,28.0,89,75,60,30.10,29.93,13,4,0,0.00
2013-12-29,45.3,40.6,29.8,39.0,33.2,28.0,95,76,57,29.93,29.61,9,2,0,0.13
2013-12-30,29.4,18.9,15.0,27.0,12.9,6.0,92,77,67,30.23,29.74,9,2,0,0.00
2013-12-31,22.0,16.8,12.7,19.0,10.7,5.0,87,77,67,30.25,29.99,12,3,0,0.00
2014-1-1,20.3,15.5,11.3,13.0,9.2,5.0,90,76,62,30.43,30.25,7,2,0,0.04
2014-1-2,13.5,9.4,2.8,11.0,6.8,0.0,90,89,87,30.31,30.01,13,4,0,0.07